createdAt,value
2018-07-06T00:02:23.693Z,101216.30
2018-07-06T00:05:04.268Z,101211.39
2018-07-06T00:07:50.721Z,101214.22
2018-07-06T00:10:36.863Z,101217.72
2018-07-06T00:13:23.376Z,101220.13
2018-07-06T00:16:09.902Z,101223.33
2018-07-06T00:18:56.243Z,101222.77
2018-07-06T00:21:42.725Z,101223.39
2018-07-06T00:24:29.108Z,101226.95
2018-07-06T00:27:15.467Z,101229.04
2018-07-06T00:30:02.035Z,101243.96
2018-07-06T00:32:48.648Z,101240.66
2018-07-06T00:35:34.857Z,101249.33
2018-07-06T00:38:15.441Z,101247.87
2018-07-06T00:41:01.896Z,101252.30
2018-07-06T00:43:48.287Z,101255.78
2018-07-06T00:46:34.606Z,101249.54
2018-07-06T00:49:21.298Z,101249.70
2018-07-06T00:52:07.816Z,101247.46
2018-07-06T00:54:54.045Z,101252.86
2018-07-06T00:57:45.586Z,101253.28
2018-07-06T01:00:31.985Z,101256.99
2018-07-06T01:03:12.682Z,101250.95
2018-07-06T01:05:58.978Z,101253.77
2018-07-06T01:08:45.619Z,101251.83
2018-07-06T01:11:25.990Z,101245.48
2018-07-06T01:14:08.214Z,101255.06
2018-07-06T01:16:48.652Z,101257.02
2018-07-06T01:19:34.970Z,101259.27
2018-07-06T01:22:21.049Z,101263.86
2018-07-06T01:25:07.425Z,101265.78
2018-07-06T01:27:53.940Z,101273.76
2018-07-06T01:30:34.280Z,101272.13
2018-07-06T01:33:20.634Z,101278.56
2018-07-06T01:36:07.046Z,101275.31
2018-07-06T01:38:53.525Z,101274.45
2018-07-06T01:41:39.475Z,101280.01
2018-07-06T01:44:25.882Z,101283.33
2018-07-06T01:47:12.107Z,101285.10
2018-07-06T01:49:58.459Z,101287.91
2018-07-06T01:52:44.727Z,101288.45
2018-07-06T01:55:31.144Z,101291.31
2018-07-06T01:58:17.669Z,101293.46
2018-07-06T02:01:04.234Z,101288.51
2018-07-06T02:03:50.609Z,101286.42
2018-07-06T02:06:36.988Z,101286.19
2018-07-06T02:09:23.302Z,101285.19
2018-07-06T02:12:09.770Z,101290.91
2018-07-06T02:14:56.140Z,101284.33
2018-07-06T02:17:42.421Z,101285.65
2018-07-06T02:20:28.874Z,101295.31
2018-07-06T02:23:15.223Z,101291.51
2018-07-06T02:26:01.640Z,101297.00
2018-07-06T02:28:48.262Z,101295.54
2018-07-06T02:31:34.629Z,101301.75
2018-07-06T02:34:20.957Z,101302.75
2018-07-06T02:37:07.269Z,101309.02
2018-07-06T02:39:53.595Z,101309.66
2018-07-06T02:42:40.088Z,101301.36
2018-07-06T02:45:26.687Z,101302.76
2018-07-06T02:48:13.154Z,101308.61
2018-07-06T02:50:59.587Z,101308.23
2018-07-06T02:53:45.899Z,101307.59
2018-07-06T02:56:32.404Z,101315.03
2018-07-06T02:59:12.905Z,101313.35
2018-07-06T03:01:59.513Z,101311.34
2018-07-06T03:04:45.924Z,101318.59
2018-07-06T03:07:32.094Z,101327.13
2018-07-06T03:10:18.640Z,101320.86
2018-07-06T03:13:05.011Z,101323.53
2018-07-06T03:15:51.514Z,101321.98
2018-07-06T03:18:31.914Z,101319.48
2018-07-06T03:21:18.157Z,101321.66
2018-07-06T03:24:04.664Z,101319.65
2018-07-06T03:26:51.339Z,101314.87
2018-07-06T03:29:31.852Z,101320.66
2018-07-06T03:32:18.143Z,101321.07
2018-07-06T03:35:04.304Z,101317.17
2018-07-06T03:37:50.818Z,101325.71
2018-07-06T03:40:36.999Z,101326.55
2018-07-06T03:43:23.678Z,101333.13
2018-07-06T03:46:10.234Z,101334.57
2018-07-06T03:48:56.695Z,101340.28
2018-07-06T03:51:43.021Z,101338.38
2018-07-06T03:54:29.435Z,101346.59
2018-07-06T03:57:16.002Z,101348.63
2018-07-06T03:59:56.349Z,101352.07
2018-07-06T04:02:42.759Z,101356.14
2018-07-06T04:05:29.196Z,101356.80
2018-07-06T04:08:15.398Z,101361.11
2018-07-06T04:11:02.029Z,101363.38
2018-07-06T04:13:48.623Z,101362.52
2018-07-06T04:16:34.986Z,101372.94
2018-07-06T04:19:15.300Z,101377.58
2018-07-06T04:22:01.768Z,101383.61
2018-07-06T04:24:48.038Z,101384.67
2018-07-06T04:27:34.477Z,101380.93
2018-07-06T04:30:14.778Z,101385.29
2018-07-06T04:33:01.193Z,101395.16
2018-07-06T04:35:47.565Z,101391.52
2018-07-06T04:38:34.029Z,101396.73
2018-07-06T04:41:14.413Z,101407.49
2018-07-06T04:44:01.027Z,101403.22
2018-07-06T04:46:47.320Z,101407.98
2018-07-06T04:49:33.523Z,101407.75
2018-07-06T04:52:20.042Z,101412.87
2018-07-06T04:55:06.553Z,101409.30
2018-07-06T04:57:53.039Z,101415.48
2018-07-06T05:00:39.488Z,101416.25
2018-07-06T05:03:25.807Z,101413.31
2018-07-06T05:06:06.246Z,101420.44
2018-07-06T05:08:52.538Z,101418.66
2018-07-06T05:11:38.803Z,101425.50
2018-07-06T05:14:25.472Z,101428.38
2018-07-06T05:17:11.781Z,101432.24
2018-07-06T05:19:52.080Z,101434.19
2018-07-06T05:22:38.280Z,101436.11
2018-07-06T05:25:24.380Z,101440.75
2018-07-06T05:28:10.654Z,101440.47
2018-07-06T05:30:57.137Z,101441.61
2018-07-06T05:33:43.727Z,101436.97
2018-07-06T05:36:24.179Z,101440.92
2018-07-06T05:39:10.611Z,101437.68
2018-07-06T05:41:57.096Z,101444.56
2018-07-06T05:44:43.587Z,101439.22
2018-07-06T05:47:30.062Z,101455.34
2018-07-06T05:50:16.526Z,101448.75
2018-07-06T05:53:03.325Z,101453.03
2018-07-06T05:55:50.085Z,101459.63
2018-07-06T05:58:36.565Z,101456.02
2018-07-06T06:01:22.875Z,101460.45
2018-07-06T06:04:09.361Z,101469.91
2018-07-06T06:06:56.024Z,101467.58
2018-07-06T06:09:25.289Z,101477.64
2018-07-06T06:11:54.607Z,101483.33
2018-07-06T06:14:23.964Z,101478.09
2018-07-06T06:16:53.329Z,101482.55
2018-07-06T06:19:22.658Z,101482.97
2018-07-06T06:21:52.418Z,101488.30
2018-07-06T06:24:21.515Z,101492.21
2018-07-06T06:26:50.855Z,101483.38
2018-07-06T06:29:20.252Z,101488.81
2018-07-06T06:31:49.590Z,101492.30
2018-07-06T06:34:19.019Z,101491.70
2018-07-06T06:36:48.721Z,101500.98
2018-07-06T06:39:18.058Z,101495.38
2018-07-06T06:41:47.373Z,101491.72
2018-07-06T06:44:16.787Z,101501.73
2018-07-06T06:46:46.112Z,101501.47
2018-07-06T06:49:15.448Z,101511.29
2018-07-06T06:51:45.667Z,101504.72
2018-07-06T06:54:15.170Z,101510.81
2018-07-06T06:56:44.453Z,101511.29
2018-07-06T06:59:13.869Z,101513.77
2018-07-06T07:01:43.231Z,101512.33
2018-07-06T07:04:12.561Z,101512.70
2018-07-06T07:06:41.823Z,101509.14
2018-07-06T07:09:11.141Z,101516.59
2018-07-06T07:11:40.428Z,101526.88
2018-07-06T07:14:09.550Z,101518.63
2018-07-06T07:16:38.901Z,101526.99
2018-07-06T07:19:08.147Z,101526.19
2018-07-06T07:21:37.418Z,101528.39
2018-07-06T07:24:06.747Z,101534.88
2018-07-06T07:26:36.300Z,101534.13
2018-07-06T07:29:05.719Z,101539.02
2018-07-06T07:31:35.105Z,101538.20
2018-07-06T07:34:04.467Z,101532.80
2018-07-06T07:36:33.797Z,101544.59
2018-07-06T07:39:03.246Z,101544.04
2018-07-06T07:41:32.795Z,101541.39
2018-07-06T07:44:02.211Z,101546.09
2018-07-06T07:46:31.651Z,101536.38
2018-07-06T07:49:00.967Z,101534.19
2018-07-06T07:52:13.030Z,101534.38
2018-07-06T07:54:47.957Z,101538.70
2018-07-06T07:57:17.287Z,101538.34
2018-07-06T07:59:46.928Z,101539.67
2018-07-06T08:02:16.657Z,101539.56
2018-07-06T08:04:46.487Z,101540.42
2018-07-06T08:07:15.763Z,101535.13
2018-07-06T08:09:45.132Z,101539.83
2018-07-06T08:12:14.447Z,101544.31
2018-07-06T08:14:43.813Z,101547.41
2018-07-06T08:17:13.213Z,101550.00
2018-07-06T08:19:42.492Z,101550.22
2018-07-06T08:22:11.834Z,101553.28
2018-07-06T08:24:41.272Z,101556.54
2018-07-06T08:27:10.736Z,101557.03
2018-07-06T08:29:39.996Z,101560.48
2018-07-06T08:32:09.243Z,101557.30
2018-07-06T08:34:55.481Z,101564.80
2018-07-06T08:37:46.825Z,101563.38
2018-07-06T08:40:16.471Z,101565.47
2018-07-06T08:42:48.960Z,101572.38
2018-07-06T08:45:18.266Z,101573.14
2018-07-06T08:47:47.914Z,101570.71
2018-07-06T08:50:17.171Z,101563.98
2018-07-06T08:52:47.673Z,101564.94
2018-07-06T08:55:17.282Z,101563.17
2018-07-06T08:57:47.507Z,101565.83
2018-07-06T09:00:16.810Z,101560.96
2018-07-06T09:02:46.234Z,101564.12
2018-07-06T09:05:15.650Z,101561.06
2018-07-06T09:07:44.956Z,101565.36
2018-07-06T09:10:14.269Z,101562.42
2018-07-06T09:12:43.592Z,101560.36
2018-07-06T09:15:12.898Z,101568.59
2018-07-06T09:17:42.244Z,101568.23
2018-07-06T09:20:11.709Z,101574.44
2018-07-06T09:22:40.781Z,101572.83
2018-07-06T09:25:10.065Z,101577.62
2018-07-06T09:27:42.364Z,101574.38
2018-07-06T09:30:11.657Z,101575.66
2018-07-06T09:32:40.939Z,101576.37
2018-07-06T09:35:10.202Z,101575.83
2018-07-06T09:37:39.536Z,101576.73
2018-07-06T09:40:10.077Z,101575.00
2018-07-06T09:42:39.353Z,101572.59
2018-07-06T09:45:08.699Z,101573.81
2018-07-06T09:47:38.046Z,101568.17
2018-07-06T09:50:07.311Z,101562.97
2018-07-06T09:52:36.585Z,101563.75
2018-07-06T09:55:05.889Z,101562.94
2018-07-06T09:57:35.149Z,101569.19
2018-07-06T10:00:04.952Z,101560.51
2018-07-06T10:02:34.384Z,101559.16
2018-07-06T10:05:03.701Z,101560.83
2018-07-06T10:07:33.053Z,101562.64
2018-07-06T10:10:02.348Z,101559.55
2018-07-06T10:12:31.708Z,101563.72
2018-07-06T10:15:01.066Z,101553.70
2018-07-06T10:17:30.477Z,101561.27
2018-07-06T10:19:59.825Z,101559.05
2018-07-06T10:22:29.132Z,101563.29
2018-07-06T10:24:58.402Z,101557.94
2018-07-06T10:27:37.354Z,101554.94
2018-07-06T10:30:21.854Z,101558.16
2018-07-06T10:32:51.091Z,101563.84
2018-07-06T10:35:20.488Z,101567.14
2018-07-06T10:37:49.837Z,101567.22
2018-07-06T10:40:19.287Z,101564.97
2018-07-06T10:42:48.558Z,101565.78
2018-07-06T10:45:17.819Z,101567.38
2018-07-06T10:47:47.135Z,101568.70
2018-07-06T10:50:16.487Z,101569.80
2018-07-06T10:52:45.757Z,101567.97
2018-07-06T10:55:15.074Z,101571.03
2018-07-06T10:57:44.386Z,101567.53
2018-07-06T11:00:13.671Z,101564.30
2018-07-06T11:02:42.943Z,101566.23
2018-07-06T11:05:12.254Z,101565.77
2018-07-06T11:07:41.574Z,101570.97
2018-07-06T11:10:10.889Z,101568.34
2018-07-06T11:12:40.202Z,101568.47
2018-07-06T11:15:09.284Z,101564.70
2018-07-06T11:17:39.049Z,101565.02
2018-07-06T11:20:08.643Z,101559.71
2018-07-06T11:22:37.944Z,101562.19
2018-07-06T11:25:07.420Z,101563.66
2018-07-06T11:27:36.953Z,101556.00
2018-07-06T11:30:06.553Z,101559.94
2018-07-06T11:32:36.123Z,101561.15
2018-07-06T11:35:05.617Z,101563.16
2018-07-06T11:37:35.066Z,101559.14
2018-07-06T11:40:04.609Z,101555.17
2018-07-06T11:42:34.020Z,101550.91
2018-07-06T11:45:03.736Z,101548.87
2018-07-06T11:47:33.051Z,101549.34
2018-07-06T11:50:02.726Z,101550.80
2018-07-06T11:52:32.208Z,101551.89
2018-07-06T11:55:01.828Z,101545.90
2018-07-06T11:57:31.408Z,101548.64
2018-07-06T12:00:01.040Z,101554.98
2018-07-06T12:02:30.549Z,101546.81
2018-07-06T12:05:00.014Z,101544.73
2018-07-06T12:07:31.582Z,101541.48
2018-07-06T12:10:01.098Z,101546.72
2018-07-06T12:12:30.390Z,101549.00
2018-07-06T12:14:59.435Z,101549.30
2018-07-06T12:17:31.461Z,101551.40
2018-07-06T12:20:01.031Z,101544.59
2018-07-06T12:22:30.366Z,101554.36
2018-07-06T12:24:59.767Z,101547.53
2018-07-06T12:27:29.175Z,101542.69
2018-07-06T12:29:58.583Z,101540.72
2018-07-06T12:32:27.983Z,101540.52
2018-07-06T12:34:57.243Z,101539.52
2018-07-06T12:37:26.516Z,101540.06
2018-07-06T12:39:55.992Z,101547.88
2018-07-06T12:42:25.247Z,101546.88
2018-07-06T12:44:54.511Z,101535.48
2018-07-06T12:47:23.832Z,101538.75
2018-07-06T12:49:53.294Z,101534.92
2018-07-06T12:52:22.563Z,101529.14
2018-07-06T12:54:52.012Z,101533.27
2018-07-06T12:57:21.449Z,101531.38
2018-07-06T12:59:50.860Z,101530.81
2018-07-06T13:02:20.159Z,101534.23
2018-07-06T13:04:49.488Z,101535.80
2018-07-06T13:07:19.102Z,101534.30
2018-07-06T13:09:48.368Z,101532.24
2018-07-06T13:12:17.665Z,101535.41
2018-07-06T13:14:46.933Z,101534.14
2018-07-06T13:17:16.198Z,101539.77
2018-07-06T13:19:45.584Z,101537.56
2018-07-06T13:22:14.834Z,101534.39
2018-07-06T13:24:44.126Z,101531.46
2018-07-06T13:27:13.556Z,101531.16
2018-07-06T13:29:42.892Z,101536.55
2018-07-06T13:32:12.255Z,101539.44
2018-07-06T13:34:42.594Z,101537.16
2018-07-06T13:37:11.873Z,101538.58
2018-07-06T13:39:41.225Z,101541.66
2018-07-06T13:42:10.495Z,101537.41
2018-07-06T13:44:39.871Z,101543.41
2018-07-06T13:47:09.174Z,101543.75
2018-07-06T13:49:38.453Z,101548.31
2018-07-06T13:52:07.781Z,101550.84
2018-07-06T13:54:37.209Z,101551.95
2018-07-06T13:57:06.518Z,101550.16
2018-07-06T13:59:35.765Z,101559.02
2018-07-06T14:02:05.023Z,101560.33
2018-07-06T14:04:34.394Z,101560.45
2018-07-06T14:07:03.783Z,101558.04
2018-07-06T14:09:33.038Z,101560.48
2018-07-06T14:12:02.601Z,101562.41
2018-07-06T14:14:32.014Z,101560.09
2018-07-06T14:17:01.335Z,101558.03
2018-07-06T14:19:30.698Z,101563.25
2018-07-06T14:22:03.887Z,101563.23
2018-07-06T14:24:33.201Z,101556.58
2018-07-06T14:27:02.499Z,101556.70
2018-07-06T14:29:31.802Z,101556.56
2018-07-06T14:32:01.421Z,101548.80
2018-07-06T14:34:35.912Z,101551.32
2018-07-06T14:37:05.265Z,101552.80
2018-07-06T14:39:34.727Z,101555.38
2018-07-06T14:42:04.166Z,101550.85
2018-07-06T14:44:33.806Z,101540.14
2018-07-06T14:47:03.131Z,101541.65
2018-07-06T14:49:32.576Z,101538.36
2018-07-06T14:52:01.955Z,101538.08
2018-07-06T14:54:31.404Z,101546.37
2018-07-06T14:57:00.701Z,101539.84
2018-07-06T14:59:30.689Z,101536.08
2018-07-06T15:02:00.163Z,101539.43
2018-07-06T15:04:29.807Z,101537.55
2018-07-06T15:06:59.614Z,101538.67
2018-07-06T15:09:29.089Z,101536.84
2018-07-06T15:11:58.665Z,101538.92
2018-07-06T15:14:28.027Z,101548.00
2018-07-06T15:16:58.446Z,101538.37
2018-07-06T15:19:27.887Z,101546.18
2018-07-06T15:21:57.343Z,101541.27
2018-07-06T15:24:26.702Z,101546.81
2018-07-06T15:26:56.002Z,101550.56
2018-07-06T15:29:25.414Z,101546.72
2018-07-06T15:31:55.021Z,101547.88
2018-07-06T15:34:24.408Z,101548.71
2018-07-06T15:36:53.941Z,101552.05
2018-07-06T15:39:23.217Z,101549.12
2018-07-06T15:41:52.588Z,101548.50
2018-07-06T15:44:21.949Z,101548.87
2018-07-06T15:46:51.510Z,101552.61
2018-07-06T15:49:22.675Z,101549.84
2018-07-06T15:51:52.910Z,101546.66
2018-07-06T15:54:22.207Z,101552.11
2018-07-06T15:56:51.523Z,101553.77
2018-07-06T15:59:20.881Z,101550.70
2018-07-06T16:01:50.504Z,101545.61
2018-07-06T16:04:19.975Z,101550.23
2018-07-06T16:06:49.345Z,101552.03
2018-07-06T16:09:19.012Z,101560.14
2018-07-06T16:11:49.436Z,101555.95
2018-07-06T16:14:19.858Z,101554.31
2018-07-06T16:16:49.469Z,101553.85
2018-07-06T16:19:19.210Z,101553.28
2018-07-06T16:21:48.922Z,101551.38
2018-07-06T16:24:18.275Z,101556.27
2018-07-06T16:26:47.802Z,101551.77
2018-07-06T16:29:17.179Z,101555.48
2018-07-06T16:31:46.594Z,101550.82
2018-07-06T16:34:15.873Z,101552.44
2018-07-06T16:36:45.159Z,101548.95
2018-07-06T16:39:14.412Z,101554.82
2018-07-06T16:41:43.825Z,101553.52
2018-07-06T16:44:13.242Z,101554.67
2018-07-06T16:46:42.511Z,101555.05
2018-07-06T16:49:11.772Z,101547.08
2018-07-06T16:51:41.179Z,101555.22
2018-07-06T16:54:10.685Z,101556.92
2018-07-06T16:56:40.329Z,101549.17
2018-07-06T16:59:09.806Z,101549.42
2018-07-06T17:01:39.267Z,101553.17
2018-07-06T17:04:08.772Z,101553.91
2018-07-06T17:06:38.334Z,101555.50
2018-07-06T17:09:07.803Z,101556.56
2018-07-06T17:11:37.237Z,101562.39
2018-07-06T17:14:06.614Z,101559.37
2018-07-06T17:16:36.059Z,101565.94
2018-07-06T17:19:05.461Z,101567.62
2018-07-06T17:21:34.824Z,101562.53
2018-07-06T17:24:05.561Z,101563.63
2018-07-06T17:26:34.685Z,101561.42
2018-07-06T17:29:04.101Z,101557.55
2018-07-06T17:31:33.553Z,101561.68
2018-07-06T17:34:02.982Z,101562.16
2018-07-06T17:36:32.776Z,101553.17
2018-07-06T17:39:02.210Z,101559.60
2018-07-06T17:41:31.943Z,101559.95
2018-07-06T17:44:01.525Z,101559.13
2018-07-06T17:46:31.027Z,101564.69
2018-07-06T17:49:00.527Z,101555.63
2018-07-06T17:51:29.994Z,101559.37
2018-07-06T17:54:00.038Z,101561.19
2018-07-06T17:56:29.526Z,101556.23
2018-07-06T17:58:58.936Z,101559.87
2018-07-06T18:01:28.248Z,101557.33
2018-07-06T18:03:57.503Z,101559.73
2018-07-06T18:06:26.901Z,101566.65
2018-07-06T18:08:56.279Z,101560.41
2018-07-06T18:11:25.813Z,101562.44
2018-07-06T18:13:55.138Z,101560.03
2018-07-06T18:16:25.252Z,101565.69
2018-07-06T18:18:54.543Z,101561.44
2018-07-06T18:21:23.903Z,101554.91
2018-07-06T18:23:53.429Z,101558.63
2018-07-06T18:26:23.138Z,101563.47
2018-07-06T18:28:52.919Z,101559.60
2018-07-06T18:31:22.562Z,101562.99
2018-07-06T18:33:52.606Z,101560.42
2018-07-06T18:36:22.435Z,101561.37
2018-07-06T18:38:52.198Z,101558.44
2018-07-06T18:41:21.965Z,101562.65
2018-07-06T18:43:51.454Z,101560.06
2018-07-06T18:46:20.843Z,101561.40
2018-07-06T18:48:50.411Z,101563.19
2018-07-06T18:51:19.810Z,101556.08
2018-07-06T18:53:49.170Z,101558.68
2018-07-06T18:56:18.473Z,101557.56
2018-07-06T18:58:47.818Z,101556.41
2018-07-06T19:01:17.061Z,101560.30
2018-07-06T19:03:46.557Z,101563.80
2018-07-06T19:06:16.055Z,101565.33
2018-07-06T19:08:45.680Z,101559.21
2018-07-06T19:11:14.924Z,101562.95
2018-07-06T19:13:44.176Z,101562.91
2018-07-06T19:16:13.570Z,101565.16
2018-07-06T19:18:43.548Z,101571.84
2018-07-06T19:21:13.053Z,101573.10
2018-07-06T19:23:42.674Z,101578.68
2018-07-06T19:26:12.039Z,101578.77
2018-07-06T19:28:41.489Z,101581.98
2018-07-06T19:31:10.955Z,101588.63
2018-07-06T19:33:40.338Z,101590.91
2018-07-06T19:36:09.889Z,101593.95
2018-07-06T19:38:39.456Z,101597.95
2018-07-06T19:41:08.923Z,101597.38
2018-07-06T19:43:38.217Z,101596.47
2018-07-06T19:46:07.894Z,101606.63
2018-07-06T19:48:37.434Z,101610.03
2018-07-06T19:51:06.785Z,101616.03
2018-07-06T19:53:36.123Z,101619.08
2018-07-06T19:56:05.761Z,101621.09
2018-07-06T19:58:35.089Z,101625.17
2018-07-06T20:01:04.471Z,101630.37
2018-07-06T20:03:33.845Z,101634.10
2018-07-06T20:06:03.280Z,101641.70
2018-07-06T20:08:32.616Z,101640.33
2018-07-06T20:11:02.182Z,101649.36
2018-07-06T20:13:31.551Z,101650.64
2018-07-06T20:16:01.023Z,101649.03
2018-07-06T20:18:30.533Z,101656.73
2018-07-06T20:21:00.261Z,101655.91
2018-07-06T20:23:29.648Z,101653.66
2018-07-06T20:25:59.028Z,101657.07
2018-07-06T20:28:28.390Z,101666.17
2018-07-06T20:30:57.745Z,101659.43
2018-07-06T20:33:27.083Z,101661.67
2018-07-06T20:35:56.508Z,101662.66
2018-07-06T20:38:25.928Z,101659.88
2018-07-06T20:40:55.256Z,101665.45
2018-07-06T20:43:24.828Z,101666.41
2018-07-06T20:45:54.228Z,101664.47
2018-07-06T20:48:24.458Z,101659.73
2018-07-06T20:50:53.953Z,101661.88
2018-07-06T20:53:23.270Z,101663.72
2018-07-06T20:55:52.550Z,101663.84
2018-07-06T20:58:21.948Z,101663.67
2018-07-06T21:00:51.084Z,101667.34
2018-07-06T21:03:20.312Z,101667.80
2018-07-06T21:05:50.347Z,101668.58
2018-07-06T21:08:19.972Z,101667.38
2018-07-06T21:10:49.382Z,101670.72
2018-07-06T21:13:18.634Z,101673.23
2018-07-06T21:15:47.895Z,101676.26
2018-07-06T21:18:17.185Z,101677.14
2018-07-06T21:20:46.427Z,101682.02
2018-07-06T21:23:15.848Z,101684.78
2018-07-06T21:25:45.182Z,101686.02
2018-07-06T21:28:15.134Z,101687.87
2018-07-06T21:30:44.454Z,101690.53
2018-07-06T21:33:13.726Z,101687.08
2018-07-06T21:35:43.029Z,101686.69
2018-07-06T21:38:12.313Z,101690.39
2018-07-06T21:40:41.726Z,101691.25
2018-07-06T21:43:11.081Z,101691.71
2018-07-06T21:45:40.325Z,101699.95
2018-07-06T21:48:09.575Z,101698.05
2018-07-06T21:50:38.994Z,101703.38
2018-07-06T21:53:08.439Z,101709.50
2018-07-06T21:55:38.135Z,101712.89
2018-07-06T21:58:07.377Z,101717.49
2018-07-06T22:00:41.261Z,101716.09
2018-07-06T22:03:12.467Z,101709.75
2018-07-06T22:05:42.587Z,101709.55
2018-07-06T22:08:11.999Z,101712.17
2018-07-06T22:10:41.318Z,101710.94
2018-07-06T22:13:10.614Z,101708.49
2018-07-06T22:15:43.712Z,101715.18
2018-07-06T22:18:14.909Z,101703.26
2018-07-06T22:20:45.439Z,101712.73
2018-07-06T22:23:15.061Z,101711.41
2018-07-06T22:25:44.578Z,101713.54
2018-07-06T22:28:13.588Z,101711.36
2018-07-06T22:30:42.900Z,101718.08
2018-07-06T22:33:12.215Z,101715.80
2018-07-06T22:35:41.510Z,101721.13
2018-07-06T22:38:10.773Z,101720.94
2018-07-06T22:40:40.116Z,101719.15
2018-07-06T22:43:09.470Z,101721.73
2018-07-06T22:45:38.746Z,101724.18
2018-07-06T22:48:08.075Z,101717.06
2018-07-06T22:50:37.520Z,101717.20
2018-07-06T22:53:06.519Z,101718.48
2018-07-06T22:55:35.793Z,101714.28
2018-07-06T22:58:05.191Z,101711.13
2018-07-06T23:00:34.570Z,101713.11
2018-07-06T23:03:05.279Z,101714.34
2018-07-06T23:05:34.637Z,101715.66
2018-07-06T23:08:04.050Z,101711.77
2018-07-06T23:10:33.373Z,101711.06
2018-07-06T23:13:02.780Z,101717.69
2018-07-06T23:15:32.095Z,101716.32
2018-07-06T23:18:01.514Z,101714.35
2018-07-06T23:20:30.922Z,101716.98
2018-07-06T23:23:09.868Z,101716.70
2018-07-06T23:25:41.757Z,101718.78
2018-07-06T23:28:11.162Z,101713.75
2018-07-06T23:30:40.566Z,101719.45
2018-07-06T23:33:10.504Z,101721.58
2018-07-06T23:35:39.733Z,101723.26
2018-07-06T23:38:09.153Z,101721.63
2018-07-06T23:40:38.394Z,101727.45
2018-07-06T23:43:07.721Z,101729.44
2018-07-06T23:45:37.009Z,101722.13
2018-07-06T23:48:06.277Z,101725.01
2018-07-06T23:50:35.623Z,101727.58
2018-07-06T23:53:04.967Z,101729.23
2018-07-06T23:55:34.429Z,101735.67
2018-07-06T23:58:03.797Z,101732.41
